createdAt,value
2016-04-21T00:00:14.927Z,42.81
2016-04-21T00:01:14.961Z,42.71
2016-04-21T00:02:15.011Z,43.1
2016-04-21T00:03:15.092Z,43
2016-04-21T00:04:15.125Z,42.9
2016-04-21T00:05:15.159Z,43
2016-04-21T00:06:15.224Z,43.19
2016-04-21T00:07:15.289Z,43.1
2016-04-21T00:08:15.308Z,43.19
2016-04-21T00:09:15.389Z,43.19
2016-04-21T00:10:15.408Z,43.1
2016-04-21T00:11:15.472Z,43.57
2016-04-21T00:12:15.522Z,43.38
2016-04-21T00:13:15.556Z,43.29
2016-04-21T00:14:15.637Z,43.29
2016-04-21T00:15:15.671Z,43.38
2016-04-21T00:16:15.720Z,43.29
2016-04-21T00:17:15.801Z,43.29
2016-04-21T00:18:15.851Z,43
2016-04-21T00:19:15.885Z,43.19
2016-04-21T00:20:15.950Z,43.1
2016-04-21T00:21:15.999Z,43.38
2016-04-21T00:22:16.034Z,43.38
2016-04-21T00:23:16.098Z,43.57
2016-04-21T00:24:16.132Z,43.48
2016-04-21T00:25:16.197Z,43.67
2016-04-21T00:26:16.247Z,43.48
2016-04-21T00:27:16.281Z,43.57
2016-04-21T00:28:16.346Z,43.57
2016-04-21T00:29:16.412Z,43.38
2016-04-21T00:30:16.430Z,43.38
2016-04-21T00:31:16.495Z,43.57
2016-04-21T00:32:16.544Z,43.57
2016-04-21T00:33:16.594Z,43.67
2016-04-21T00:34:16.644Z,44.06
2016-04-21T00:35:16.708Z,43.38
2016-04-21T00:36:16.743Z,43.57
2016-04-21T00:37:16.808Z,43.96
2016-04-21T00:38:16.841Z,43.77
2016-04-21T00:39:16.892Z,43.77
2016-04-21T00:40:16.972Z,43.57
2016-04-21T00:41:17.005Z,43.67
2016-04-21T00:42:17.040Z,43.96
2016-04-21T00:43:17.121Z,43.87
2016-04-21T00:44:17.171Z,43.96
2016-04-21T00:45:17.205Z,44.06
2016-04-21T00:46:17.285Z,44.15
2016-04-21T00:47:17.319Z,44.15
2016-04-21T00:48:17.353Z,44.15
2016-04-21T00:49:17.434Z,44.24
2016-04-21T00:50:17.468Z,44.44
2016-04-21T00:51:17.517Z,44.24
2016-04-21T00:52:17.568Z,44.15
2016-04-21T00:53:17.632Z,44.15
2016-04-21T00:54:17.666Z,44.15
2016-04-21T00:55:17.732Z,44.54
2016-04-21T00:56:17.781Z,44.34
2016-04-21T00:57:17.799Z,44.34
2016-04-21T00:58:17.864Z,44.44
2016-04-21T00:59:17.929Z,44.44
2016-04-21T01:00:17.964Z,44.44
2016-04-21T01:01:18.029Z,44.44
2016-04-21T01:02:18.062Z,44.63
2016-04-21T01:03:18.112Z,44.92
2016-04-21T01:04:18.208Z,44.44
2016-04-21T01:05:18.288Z,44.63
2016-04-21T01:06:18.384Z,44.63
2016-04-21T01:07:18.493Z,44.73
2016-04-21T01:08:18.619Z,44.92
2016-04-21T01:09:18.673Z,44.63
2016-04-21T01:10:18.740Z,44.63
2016-04-21T01:11:18.821Z,44.44
2016-04-21T01:12:18.856Z,44.63
2016-04-21T01:13:18.937Z,44.63
2016-04-21T01:14:18.999Z,44.54
2016-04-21T01:15:19.071Z,44.54
2016-04-21T01:16:19.126Z,44.54
2016-04-21T01:17:19.166Z,44.63
2016-04-21T01:18:19.236Z,44.63
2016-04-21T01:19:19.291Z,44.82
2016-04-21T01:20:19.327Z,44.82
2016-04-21T01:21:19.394Z,44.82
2016-04-21T01:22:19.451Z,44.82
2016-04-21T01:23:19.486Z,44.82
2016-04-21T01:24:19.538Z,45.01
2016-04-21T01:25:19.620Z,44.92
2016-04-21T01:26:19.654Z,44.82
2016-04-21T01:27:19.705Z,44.82
2016-04-21T01:28:19.755Z,44.92
2016-04-21T01:29:19.820Z,44.92
2016-04-21T01:30:19.870Z,44.82
2016-04-21T01:31:19.905Z,45.11
2016-04-21T01:32:19.970Z,45.01
2016-04-21T01:33:20.020Z,44.82
2016-04-21T01:34:20.054Z,45.01
2016-04-21T01:35:20.104Z,44.92
2016-04-21T01:36:20.170Z,45.01
2016-04-21T01:37:20.203Z,45.11
2016-04-21T01:38:20.269Z,45.11
2016-04-21T01:39:20.318Z,44.73
2016-04-21T01:40:20.368Z,45.11
2016-04-21T01:41:20.433Z,45.01
2016-04-21T01:42:20.467Z,45.11
2016-04-21T01:43:20.531Z,44.92
2016-04-21T01:44:20.581Z,45.4
2016-04-21T01:45:20.615Z,45.11
2016-04-21T01:46:20.665Z,45.01
2016-04-21T01:47:20.731Z,45.01
2016-04-21T01:48:20.764Z,45.11
2016-04-21T01:49:20.814Z,45.01
2016-04-21T01:50:20.894Z,44.92
2016-04-21T01:51:20.928Z,44.92
2016-04-21T01:52:20.978Z,45.11
2016-04-21T01:53:21.028Z,45.21
2016-04-21T01:54:21.078Z,45.01
2016-04-21T01:55:21.142Z,44.92
2016-04-21T01:56:21.192Z,45.11
2016-04-21T01:57:21.241Z,45.01
2016-04-21T01:58:21.291Z,45.01
2016-04-21T01:59:21.356Z,45.01
2016-04-21T02:00:21.374Z,44.92
2016-04-21T02:01:21.440Z,45.68
2016-04-21T02:02:21.505Z,44.82
2016-04-21T02:03:21.524Z,44.92
2016-04-21T02:04:21.588Z,45.4
2016-04-21T02:05:20.919Z,45.01
2016-04-21T02:06:21.734Z,45.3
2016-04-21T02:07:21.785Z,45.11
2016-04-21T02:08:21.818Z,45.11
2016-04-21T02:09:21.884Z,45.11
2016-04-21T02:10:21.917Z,45.11
2016-04-21T02:11:21.951Z,45.21
2016-04-21T02:12:22.000Z,45.5
2016-04-21T02:13:22.066Z,45.11
2016-04-21T02:14:22.101Z,45.59
2016-04-21T02:15:22.134Z,45.4
2016-04-21T02:16:22.214Z,45.3
2016-04-21T02:17:22.248Z,45.21
2016-04-21T02:18:22.313Z,45.4
2016-04-21T02:19:22.363Z,45.59
2016-04-21T02:20:22.414Z,45.68
2016-04-21T02:21:22.478Z,45.68
2016-04-21T02:22:22.511Z,45.4
2016-04-21T02:23:22.561Z,45.21
2016-04-21T02:24:22.612Z,45.4
2016-04-21T02:25:22.645Z,45.3
2016-04-21T02:26:22.711Z,45.4
2016-04-21T02:27:22.775Z,45.3
2016-04-21T02:28:22.825Z,45.3
2016-04-21T02:29:22.859Z,45.4
2016-04-21T02:30:22.924Z,45.3
2016-04-21T02:31:22.974Z,45.09
2016-04-21T02:32:23.007Z,45.11
2016-04-21T02:33:23.073Z,45.21
2016-04-21T02:34:23.122Z,45.5
2016-04-21T02:35:23.187Z,45.4
2016-04-21T02:36:23.238Z,45.78
2016-04-21T02:37:23.287Z,45.5
2016-04-21T02:38:23.337Z,45.4
2016-04-21T02:39:23.402Z,45.5
2016-04-21T02:40:23.435Z,45.4
2016-04-21T02:41:23.485Z,46.17
2016-04-21T02:42:23.534Z,45.28
2016-04-21T02:43:23.584Z,45.5
2016-04-21T02:44:23.634Z,45.59
2016-04-21T02:45:23.683Z,45.4
2016-04-21T02:46:23.749Z,45.4
2016-04-21T02:47:23.798Z,45.4
2016-04-21T02:48:23.848Z,46.17
2016-04-21T02:49:23.912Z,45.59
2016-04-21T02:50:23.947Z,45.5
2016-04-21T02:51:24.012Z,45.68
2016-04-21T02:52:24.061Z,45.59
2016-04-21T02:53:24.111Z,45.5
2016-04-21T02:54:24.145Z,45.68
2016-04-21T02:55:24.210Z,45.68
2016-04-21T02:56:24.275Z,45.4
2016-04-21T02:57:24.308Z,45.68
2016-04-21T02:58:24.359Z,45.86
2016-04-21T02:59:24.408Z,46.45
2016-04-21T03:00:24.458Z,46.55
2016-04-21T03:01:24.508Z,46.53
2016-04-21T03:02:24.557Z,46.36
2016-04-21T03:03:24.622Z,46.45
2016-04-21T03:04:24.657Z,45.88
2016-04-21T03:05:24.705Z,46.26
2016-04-21T03:06:24.771Z,46.07
2016-04-21T03:07:24.804Z,46.07
2016-04-21T03:08:24.870Z,46.36
2016-04-21T03:09:24.921Z,46.17
2016-04-21T03:10:24.969Z,46.36
2016-04-21T03:11:25.004Z,46.26
2016-04-21T03:12:25.068Z,46.45
2016-04-21T03:13:25.118Z,46.07
2016-04-21T03:14:25.168Z,46.36
2016-04-21T03:15:25.232Z,46.07
2016-04-21T03:16:25.282Z,46.36
2016-04-21T03:17:25.331Z,46.07
2016-04-21T03:18:25.381Z,46.34
2016-04-21T03:19:25.431Z,46.17
2016-04-21T03:20:25.480Z,46.17
2016-04-21T03:21:25.531Z,46.17
2016-04-21T03:22:25.573Z,46.26
2016-04-21T03:23:25.623Z,46.17
2016-04-21T03:24:25.671Z,46.81
2016-04-21T03:25:25.737Z,46.07
2016-04-21T03:26:25.787Z,46.17
2016-04-21T03:27:25.836Z,46.84
2016-04-21T03:28:25.887Z,45.88
2016-04-21T03:29:25.951Z,46.26
2016-04-21T03:30:26.000Z,45.98
2016-04-21T03:31:26.034Z,46.07
2016-04-21T03:32:26.100Z,45.88
2016-04-21T03:33:26.150Z,46.74
2016-04-21T03:34:26.183Z,45.95
2016-04-21T03:35:26.248Z,45.98
2016-04-21T03:36:26.298Z,46.55
2016-04-21T03:37:26.348Z,46.55
2016-04-21T03:38:26.397Z,45.98
2016-04-21T03:39:26.447Z,45.98
2016-04-21T03:40:26.496Z,46.07
2016-04-21T03:41:26.546Z,46.07
2016-04-21T03:42:26.595Z,46.07
2016-04-21T03:43:26.645Z,45.68
2016-04-21T03:44:26.710Z,45.68
2016-04-21T03:45:26.760Z,45.68
2016-04-21T03:46:26.809Z,45.88
2016-04-21T03:47:26.859Z,46.07
2016-04-21T03:48:26.908Z,45.98
2016-04-21T03:49:26.943Z,45.98
2016-04-21T03:50:27.007Z,45.98
2016-04-21T03:51:27.057Z,45.98
2016-04-21T03:52:27.106Z,46.07
2016-04-21T03:53:27.172Z,46.45
2016-04-21T03:54:27.206Z,45.88
2016-04-21T03:55:27.271Z,46.17
2016-04-21T03:56:27.321Z,46.26
2016-04-21T03:57:27.385Z,46.17
2016-04-21T03:58:27.420Z,46.26
2016-04-21T03:59:27.484Z,45.98
2016-04-21T04:00:27.518Z,47.03
2016-04-21T04:01:27.553Z,46.36
2016-04-21T04:02:27.634Z,46.36
2016-04-21T04:03:27.683Z,46.26
2016-04-21T04:04:27.717Z,46.26
2016-04-21T04:05:27.767Z,46.26
2016-04-21T04:06:27.831Z,46.26
2016-04-21T04:07:27.866Z,46.26
2016-04-21T04:08:27.930Z,46.55
2016-04-21T04:09:27.231Z,46.36
2016-04-21T04:10:28.030Z,46.55
2016-04-21T04:11:28.080Z,46.55
2016-04-21T04:12:28.129Z,46.17
2016-04-21T04:13:28.178Z,46.17
2016-04-21T04:14:28.227Z,46.45
2016-04-21T04:15:28.277Z,46.55
2016-04-21T04:16:28.327Z,46.45
2016-04-21T04:17:28.393Z,46.26
2016-04-21T04:18:28.427Z,46.65
2016-04-21T04:19:28.491Z,46.17
2016-04-21T04:20:28.541Z,46.17
2016-04-21T04:21:28.607Z,46.65
2016-04-21T04:22:28.641Z,46.55
2016-04-21T04:23:28.721Z,46.55
2016-04-21T04:24:28.740Z,46.26
2016-04-21T04:25:28.789Z,46.55
2016-04-21T04:26:28.838Z,46.45
2016-04-21T04:27:28.888Z,46.55
2016-04-21T04:28:28.937Z,46.45
2016-04-21T04:29:28.988Z,46.65
2016-04-21T04:30:29.053Z,46.36
2016-04-21T04:31:29.743Z,46.65
2016-04-21T04:32:29.651Z,46.74
2016-04-21T04:33:29.201Z,46.84
2016-04-21T04:34:29.250Z,47.03
2016-04-21T04:35:29.301Z,46.26
2016-04-21T04:36:29.350Z,46.17
2016-04-21T04:37:29.415Z,46.65
2016-04-21T04:38:29.450Z,46.74
2016-04-21T04:39:29.498Z,47.03
2016-04-21T04:40:29.580Z,46.65
2016-04-21T04:41:29.613Z,47.01
2016-04-21T04:42:29.678Z,46.65
2016-04-21T04:43:29.759Z,47.32
2016-04-21T04:44:29.762Z,47.03
2016-04-21T04:45:31.530Z,47.03
2016-04-21T04:46:29.877Z,47.13
2016-04-21T04:47:29.910Z,47.13
2016-04-21T04:48:29.961Z,47.3
2016-04-21T04:49:30.010Z,47.22
2016-04-21T04:50:31.122Z,47.2
2016-04-21T04:51:30.109Z,47.13
2016-04-21T04:52:30.596Z,47.22
2016-04-21T04:53:30.224Z,47.03
2016-04-21T04:54:30.258Z,47.32
2016-04-21T04:55:30.308Z,47.22
2016-04-21T04:56:30.373Z,47.13
2016-04-21T04:57:30.422Z,47.13
2016-04-21T04:58:30.471Z,47.8
2016-04-21T04:59:30.537Z,46.94
2016-04-21T05:00:30.586Z,47.01
2016-04-21T05:01:30.637Z,47.1
2016-04-21T05:02:30.685Z,47.13
2016-04-21T05:03:30.735Z,46.94
2016-04-21T05:04:30.769Z,47.13
2016-04-21T05:05:30.834Z,47.03
2016-04-21T05:06:30.883Z,46.94
2016-04-21T05:07:30.933Z,46.91
2016-04-21T05:08:30.999Z,46.94
2016-04-21T05:09:31.033Z,47.01
2016-04-21T05:10:31.098Z,47.03
2016-04-21T05:11:31.147Z,47.22
2016-04-21T05:12:31.181Z,47.22
2016-04-21T05:13:31.230Z,47.03
2016-04-21T05:14:31.280Z,46.94
2016-04-21T05:15:31.345Z,47.77
2016-04-21T05:16:31.380Z,47.03
2016-04-21T05:17:31.444Z,47.03
2016-04-21T05:18:31.510Z,46.84
2016-04-21T05:19:31.544Z,47.03
2016-04-21T05:20:31.594Z,47.03
2016-04-21T05:21:31.643Z,47.8
2016-04-21T05:22:31.693Z,47.03
2016-04-21T05:23:31.757Z,47.68
2016-04-21T05:24:31.807Z,47.22
2016-04-21T05:25:31.857Z,47.01
2016-04-21T05:26:31.906Z,47.77
2016-04-21T05:27:31.956Z,47.03
2016-04-21T05:28:32.021Z,47.03
2016-04-21T05:29:32.055Z,46.84
2016-04-21T05:30:32.121Z,47.03
2016-04-21T05:31:32.154Z,46.65
2016-04-21T05:32:32.220Z,46.55
2016-04-21T05:33:32.290Z,43.87
2016-04-21T05:34:32.325Z,45.4
2016-04-21T05:35:32.373Z,45.5
2016-04-21T05:36:32.422Z,45.21
2016-04-21T05:37:32.462Z,46.07
2016-04-21T05:38:32.512Z,45.88
2016-04-21T05:39:32.546Z,46.24
2016-04-21T05:40:32.612Z,46.24
2016-04-21T05:41:32.661Z,46.24
2016-04-21T05:42:32.709Z,46.84
2016-04-21T05:43:32.760Z,46.62
2016-04-21T05:44:32.825Z,46.62
2016-04-21T05:45:32.874Z,46.43
2016-04-21T05:46:32.925Z,46.34
2016-04-21T05:47:32.973Z,46.84
2016-04-21T05:48:33.023Z,46.74
2016-04-21T05:49:33.089Z,47.13
2016-04-21T05:50:33.122Z,46.94
2016-04-21T05:51:33.016Z,46.91
2016-04-21T05:52:33.221Z,46.34
2016-04-21T05:53:33.272Z,46.24
2016-04-21T05:54:33.321Z,46.91
2016-04-21T05:55:33.385Z,47.01
2016-04-21T05:56:33.436Z,46.14
2016-04-21T05:57:33.500Z,46.34
2016-04-21T05:58:33.534Z,46.26
2016-04-21T05:59:33.585Z,46.34
2016-04-21T06:00:33.633Z,46.43
2016-04-21T06:01:33.683Z,47.3
2016-04-21T06:02:33.733Z,47.01
2016-04-21T06:03:33.782Z,46.91
2016-04-21T06:04:33.832Z,46.34
2016-04-21T06:05:33.882Z,46.94
2016-04-21T06:06:33.946Z,46.14
2016-04-21T06:07:33.996Z,46.34
2016-04-21T06:08:34.061Z,46.36
2016-04-21T06:09:34.095Z,46.91
2016-04-21T06:10:34.145Z,46.84
2016-04-21T06:11:34.195Z,47.22
2016-04-21T06:12:34.244Z,45.18
2016-04-21T06:13:34.309Z,43.17
2016-04-21T06:14:34.359Z,41.54
2016-04-21T06:15:34.409Z,40.77
2016-04-21T06:16:34.442Z,40.84
2016-04-21T06:17:34.492Z,40.47
2016-04-21T06:18:34.557Z,39.89
2016-04-21T06:19:34.606Z,40.17
2016-04-21T06:20:34.641Z,39.87
2016-04-21T06:21:34.705Z,39.39
2016-04-21T06:22:34.755Z,39.1
2016-04-21T06:23:34.836Z,38.91
2016-04-21T06:24:34.869Z,38.79
2016-04-21T06:25:34.888Z,38.98
2016-04-21T06:26:34.203Z,39.18
2016-04-21T06:27:35.003Z,38.98
2016-04-21T06:28:35.052Z,38.51
2016-04-21T06:29:35.102Z,37.84
2016-04-21T06:30:35.168Z,38.22
2016-04-21T06:31:35.217Z,37.55
2016-04-21T06:32:35.267Z,37.26
2016-04-21T06:33:35.316Z,37.63
2016-04-21T06:34:35.366Z,38.01
2016-04-21T06:35:35.415Z,38.49
2016-04-21T06:36:35.465Z,38.2
2016-04-21T06:37:35.515Z,37.8
2016-04-21T06:38:35.565Z,37.8
2016-04-21T06:39:35.613Z,37.99
2016-04-21T06:40:35.663Z,38.47
2016-04-21T06:41:35.713Z,38.18
2016-04-21T06:42:35.762Z,38.18
2016-04-21T06:43:35.795Z,38.37
2016-04-21T06:44:35.862Z,38.37
2016-04-21T06:45:35.911Z,38.66
2016-04-21T06:46:35.961Z,38.28
2016-04-21T06:47:36.010Z,38.26
2016-04-21T06:48:36.060Z,38.17
2016-04-21T06:49:36.109Z,38.35
2016-04-21T06:50:36.175Z,38.93
2016-04-21T06:51:36.209Z,39.03
2016-04-21T06:52:36.258Z,39.22
2016-04-21T06:53:36.323Z,39.14
2016-04-21T06:54:36.342Z,38.83
2016-04-21T06:55:36.406Z,38.85
2016-04-21T06:56:36.456Z,38.85
2016-04-21T06:57:36.491Z,38.66
2016-04-21T06:58:36.571Z,38.66
2016-04-21T06:59:36.605Z,38.56
2016-04-21T07:00:36.655Z,38.18
2016-04-21T07:01:36.688Z,38.47
2016-04-21T07:02:36.754Z,38.47
2016-04-21T07:03:36.788Z,38.54
2016-04-21T07:04:36.852Z,38.17
2016-04-21T07:05:36.902Z,38.45
2016-04-21T07:06:36.952Z,38.64
2016-04-21T07:07:37.001Z,38.35
2016-04-21T07:08:37.051Z,38.37
2016-04-21T07:09:37.085Z,38.45
2016-04-21T07:10:37.150Z,38.45
2016-04-21T07:11:37.199Z,38.54
2016-04-21T07:12:37.234Z,38.93
2016-04-21T07:13:37.299Z,38.83
2016-04-21T07:14:37.332Z,39.12
2016-04-21T07:15:37.398Z,39.03
2016-04-21T07:16:37.431Z,39.31
2016-04-21T07:17:37.481Z,38.83
2016-04-21T07:18:37.531Z,39.03
2016-04-21T07:19:37.580Z,38.93
2016-04-21T07:20:37.631Z,39.12
2016-04-21T07:21:37.680Z,38.93
2016-04-21T07:22:37.728Z,38.74
2016-04-21T07:23:37.779Z,38.93
2016-04-21T07:24:37.814Z,38.85
2016-04-21T07:25:37.862Z,39.33
2016-04-21T07:26:37.928Z,38.56
2016-04-21T07:27:37.978Z,38.37
2016-04-21T07:28:38.027Z,38.66
2016-04-21T07:29:38.077Z,39.81
2016-04-21T07:30:38.125Z,39.81
2016-04-21T07:31:38.222Z,39.43
2016-04-21T07:32:38.225Z,39.23
2016-04-21T07:33:38.274Z,39.45
2016-04-21T07:34:38.308Z,39.25
2016-04-21T07:35:38.482Z,39.06
2016-04-21T07:36:38.423Z,39.06
2016-04-21T07:37:37.708Z,39.06
2016-04-21T07:38:38.507Z,39.35
2016-04-21T07:39:38.571Z,39.08
2016-04-21T07:40:38.622Z,38.89
2016-04-21T07:41:38.671Z,39.18
2016-04-21T07:42:38.721Z,39.18
2016-04-21T07:43:38.771Z,39.28
2016-04-21T07:44:38.804Z,39.28
2016-04-21T07:45:38.854Z,39.47
2016-04-21T07:46:38.903Z,39.56
2016-04-21T07:47:38.953Z,39.28
2016-04-21T07:48:39.003Z,39.47
2016-04-21T07:49:39.051Z,39.65
2016-04-21T07:50:39.101Z,39.75
2016-04-21T07:51:39.182Z,39.48
2016-04-21T07:52:39.232Z,39.75
2016-04-21T07:53:39.266Z,39.29
2016-04-21T07:54:39.315Z,39.68
2016-04-21T07:55:39.365Z,39.87
2016-04-21T07:56:39.414Z,39.97
2016-04-21T07:57:39.464Z,39.97
2016-04-21T07:58:39.498Z,39.29
2016-04-21T07:59:39.563Z,39.77
2016-04-21T08:00:39.613Z,40.25
2016-04-21T08:01:39.646Z,39.97
2016-04-21T08:02:39.712Z,40.16
2016-04-21T08:03:39.589Z,39.87
2016-04-21T08:04:39.810Z,39.58
2016-04-21T08:05:39.861Z,39.68
2016-04-21T08:06:39.910Z,39.87
2016-04-21T08:07:39.960Z,40.35
2016-04-21T08:08:40.010Z,39.87
2016-04-21T08:09:40.043Z,40.16
2016-04-21T08:10:40.108Z,40.16
2016-04-21T08:11:40.142Z,39.87
2016-04-21T08:12:40.192Z,40.25
2016-04-21T08:13:40.241Z,40.25
2016-04-21T08:14:40.307Z,40.25
2016-04-21T08:15:40.357Z,40.44
2016-04-21T08:16:40.421Z,40.16
2016-04-21T08:17:40.456Z,40.27
2016-04-21T08:18:40.504Z,40.64
2016-04-21T08:19:40.571Z,40.27
2016-04-21T08:20:40.620Z,40.56
2016-04-21T08:21:40.670Z,40.73
2016-04-21T08:22:40.703Z,40.64
2016-04-21T08:23:40.767Z,40.56
2016-04-21T08:24:40.803Z,40.66
2016-04-21T08:25:40.867Z,40.66
2016-04-21T08:26:40.901Z,40.75
2016-04-21T08:27:40.950Z,40.66
2016-04-21T08:28:41.001Z,40.47
2016-04-21T08:29:41.066Z,40.56
2016-04-21T08:30:41.130Z,40.47
2016-04-21T08:31:41.165Z,40.47
2016-04-21T08:32:41.199Z,40.47
2016-04-21T08:33:41.264Z,40.56
2016-04-21T08:34:41.314Z,41.04
2016-04-21T08:35:41.363Z,40.37
2016-04-21T08:36:41.413Z,40.47
2016-04-21T08:37:41.462Z,41.04
2016-04-21T08:38:41.512Z,40.27
2016-04-21T08:39:41.561Z,40.84
2016-04-21T08:40:41.610Z,40.56
2016-04-21T08:41:41.661Z,40.84
2016-04-21T08:42:41.710Z,40.94
2016-04-21T08:43:41.776Z,40.84
2016-04-21T08:44:41.825Z,40.66
2016-04-21T08:45:41.874Z,40.66
2016-04-21T08:46:41.908Z,40.75
2016-04-21T08:47:41.990Z,41.13
2016-04-21T08:48:42.024Z,40.75
2016-04-21T08:49:42.073Z,40.66
2016-04-21T08:50:42.122Z,40.94
2016-04-21T08:51:42.172Z,40.84
2016-04-21T08:52:42.211Z,40.94
2016-04-21T08:53:42.261Z,40.94
2016-04-21T08:54:42.325Z,40.66
2016-04-21T08:55:42.375Z,40.84
2016-04-21T08:56:42.424Z,40.94
2016-04-21T08:57:42.458Z,41.42
2016-04-21T08:58:42.524Z,41.04
2016-04-21T08:59:42.572Z,40.94
2016-04-21T09:00:42.622Z,41.04
2016-04-21T09:01:42.658Z,41.23
2016-04-21T09:02:42.722Z,41.13
2016-04-21T09:03:42.771Z,41.13
2016-04-21T09:04:42.821Z,41.13
2016-04-21T09:05:42.886Z,41.23
2016-04-21T09:06:42.936Z,41.13
2016-04-21T09:07:42.985Z,41.13
2016-04-21T09:08:43.035Z,41.04
2016-04-21T09:09:43.085Z,41.23
2016-04-21T09:10:43.134Z,41.42
2016-04-21T09:11:43.199Z,41.33
2016-04-21T09:12:43.232Z,41.42
2016-04-21T09:13:43.283Z,41.42
2016-04-21T09:14:43.333Z,41.33
2016-04-21T09:15:43.366Z,41.35
2016-04-21T09:16:43.447Z,41.23
2016-04-21T09:17:43.481Z,41.33
2016-04-21T09:18:43.530Z,41.25
2016-04-21T09:19:43.581Z,41.33
2016-04-21T09:20:43.645Z,41.35
2016-04-21T09:21:43.679Z,41.63
2016-04-21T09:22:43.728Z,41.44
2016-04-21T09:23:43.778Z,41.52
2016-04-21T09:24:43.828Z,41.54
2016-04-21T09:25:43.909Z,41.44
2016-04-21T09:26:43.943Z,41.54
2016-04-21T09:27:43.993Z,41.54
2016-04-21T09:28:44.042Z,41.52
2016-04-21T09:29:44.123Z,41.54
2016-04-21T09:30:44.141Z,41.52
2016-04-21T09:31:44.191Z,41.71
2016-04-21T09:32:44.240Z,42.02
2016-04-21T09:33:44.305Z,41.63
2016-04-21T09:34:44.339Z,41.63
2016-04-21T09:35:44.405Z,42.02
2016-04-21T09:36:44.438Z,42.6
2016-04-21T09:37:44.488Z,41.73
2016-04-21T09:38:44.552Z,41.73
2016-04-21T09:39:44.588Z,42.4
2016-04-21T09:40:44.652Z,41.83
2016-04-21T09:41:44.702Z,42.4
2016-04-21T09:42:44.751Z,42.3
2016-04-21T09:43:44.801Z,42.4
2016-04-21T09:44:44.866Z,42.21
2016-04-21T09:45:44.915Z,42.21
2016-04-21T09:46:44.949Z,42.21
2016-04-21T09:47:44.999Z,42.21
2016-04-21T09:48:45.048Z,42.3
2016-04-21T09:49:45.099Z,42.21
2016-04-21T09:50:45.164Z,42.21
2016-04-21T09:51:45.197Z,42.21
2016-04-21T09:52:45.263Z,42.3
2016-04-21T09:53:45.312Z,42.21
2016-04-21T09:54:45.362Z,42.21
2016-04-21T09:55:45.412Z,42.21
2016-04-21T09:56:45.476Z,42.11
2016-04-21T09:57:45.511Z,42.3
2016-04-21T09:58:45.560Z,42.02
2016-04-21T09:59:45.610Z,42.21
2016-04-21T10:00:45.675Z,42.21
2016-04-21T10:01:45.725Z,42.5
2016-04-21T10:02:45.775Z,42.3
2016-04-21T10:03:45.808Z,42.5
2016-04-21T10:04:45.872Z,42.4
2016-04-21T10:05:45.922Z,42.4
2016-04-21T10:06:45.988Z,42.3
2016-04-21T10:07:46.022Z,42.69
2016-04-21T10:08:46.071Z,42.79
2016-04-21T10:09:46.136Z,42.21
2016-04-21T10:10:46.203Z,42.4
2016-04-21T10:11:46.297Z,42.21
2016-04-21T10:12:46.405Z,42.21
2016-04-21T10:13:46.499Z,42.4
2016-04-21T10:14:46.640Z,42.3
2016-04-21T10:15:46.666Z,42.4
2016-04-21T10:16:46.732Z,42.3
2016-04-21T10:17:46.796Z,42.4
2016-04-21T10:18:46.847Z,42.3
2016-04-21T10:19:46.913Z,42.6
2016-04-21T10:20:46.985Z,42.5
2016-04-21T10:21:47.040Z,42.5
2016-04-21T10:22:47.097Z,42.4
2016-04-21T10:23:47.152Z,42.3
2016-04-21T10:24:47.082Z,42.3
2016-04-21T10:25:47.275Z,42.3
2016-04-21T10:26:47.326Z,42.21
2016-04-21T10:27:47.378Z,42.4
2016-04-21T10:28:47.430Z,42.3
2016-04-21T10:29:47.482Z,42.3
2016-04-21T10:30:47.532Z,42.21
2016-04-21T10:31:47.582Z,42.4
2016-04-21T10:32:47.632Z,42.4
2016-04-21T10:33:47.682Z,42.5
2016-04-21T10:34:47.733Z,42.6
2016-04-21T10:35:47.783Z,42.5
2016-04-21T10:36:47.833Z,42.5
2016-04-21T10:37:47.899Z,42.21
2016-04-21T10:38:47.932Z,42.4
2016-04-21T10:39:47.998Z,42.79
2016-04-21T10:40:48.048Z,42.5
2016-04-21T10:41:48.082Z,42.21
2016-04-21T10:42:48.148Z,42.3
2016-04-21T10:43:48.196Z,42.4
2016-04-21T10:44:48.246Z,42.3
2016-04-21T10:45:48.281Z,42.5
2016-04-21T10:46:48.345Z,42.3
2016-04-21T10:47:48.396Z,42.4
2016-04-21T10:48:48.445Z,42.3
2016-04-21T10:49:48.510Z,42.6
2016-04-21T10:50:48.560Z,42.21
2016-04-21T10:51:48.609Z,42.21
2016-04-21T10:52:48.659Z,42.4
2016-04-21T10:53:48.709Z,42.3
2016-04-21T10:54:48.773Z,42.6
2016-04-21T10:55:48.808Z,42.79
2016-04-21T10:56:48.856Z,42.5
2016-04-21T10:57:48.906Z,42.88
2016-04-21T10:58:48.956Z,42.69
2016-04-21T10:59:49.021Z,42.5
2016-04-21T11:00:49.055Z,42.88
2016-04-21T11:01:49.105Z,42.88
2016-04-21T11:02:49.170Z,42.69
2016-04-21T11:03:49.219Z,42.79
2016-04-21T11:04:49.253Z,42.88
2016-04-21T11:05:49.303Z,42.88
2016-04-21T11:06:49.369Z,42.69
2016-04-21T11:07:49.402Z,42.88
2016-04-21T11:08:49.452Z,42.69
2016-04-21T11:09:49.532Z,42.79
2016-04-21T11:10:49.566Z,42.69
2016-04-21T11:11:49.616Z,42.6
2016-04-21T11:12:49.666Z,42.88
2016-04-21T11:13:49.731Z,42.88
2016-04-21T11:14:49.780Z,42.79
2016-04-21T11:15:49.830Z,42.69
2016-04-21T11:16:49.880Z,42.79
2016-04-21T11:17:49.928Z,42.69
2016-04-21T11:18:49.978Z,42.69
2016-04-21T11:19:50.028Z,42.79
2016-04-21T11:20:50.078Z,42.69
2016-04-21T11:21:50.127Z,42.79
2016-04-21T11:22:50.177Z,42.98
2016-04-21T11:23:50.226Z,42.98
2016-04-21T11:24:50.292Z,42.88
2016-04-21T11:25:50.325Z,42.79
2016-04-21T11:26:50.375Z,42.4
2016-04-21T11:27:50.425Z,42.88
2016-04-21T11:28:50.490Z,42.88
2016-04-21T11:29:50.539Z,42.79
2016-04-21T11:30:50.589Z,42.69
2016-04-21T11:31:50.622Z,42.88
2016-04-21T11:32:50.688Z,42.69
2016-04-21T11:33:50.769Z,42.79
2016-04-21T11:34:50.788Z,42.79
2016-04-21T11:35:50.836Z,42.88
2016-04-21T11:36:50.886Z,42.79
2016-04-21T11:37:50.935Z,42.79
2016-04-21T11:38:50.985Z,42.6
2016-04-21T11:39:51.097Z,42.69
2016-04-21T11:40:51.100Z,42.69
2016-04-21T11:41:51.150Z,42.69
2016-04-21T11:42:51.184Z,42.79
2016-04-21T11:43:51.249Z,42.79
2016-04-21T11:44:51.299Z,42.79
2016-04-21T11:45:51.349Z,42.69
2016-04-21T11:46:51.398Z,42.69
2016-04-21T11:47:51.447Z,42.79
2016-04-21T11:48:51.496Z,42.69
2016-04-21T11:49:51.531Z,42.69
2016-04-21T11:50:51.612Z,42.88
2016-04-21T11:51:51.662Z,42.79
2016-04-21T11:52:53.211Z,42.69
2016-04-21T11:53:51.759Z,42.69
2016-04-21T11:54:51.809Z,42.88
2016-04-21T11:55:51.859Z,42.79
2016-04-21T11:56:51.909Z,42.79
2016-04-21T11:57:51.943Z,42.69
2016-04-21T11:58:52.008Z,42.69
2016-04-21T11:59:52.058Z,42.6
2016-04-21T12:00:52.107Z,42.69
2016-04-21T12:01:52.188Z,42.79
2016-04-21T12:02:52.206Z,42.88
2016-04-21T12:03:52.272Z,42.79
2016-04-21T12:04:52.322Z,42.79
2016-04-21T12:05:52.371Z,42.79
2016-04-21T12:06:52.405Z,42.69
2016-04-21T12:07:52.469Z,42.69
2016-04-21T12:08:52.519Z,42.79
2016-04-21T12:09:52.569Z,42.88
2016-04-21T12:10:52.618Z,42.79
2016-04-21T12:11:52.668Z,42.79
2016-04-21T12:12:52.718Z,42.69
2016-04-21T12:13:52.767Z,42.6
2016-04-21T12:14:52.832Z,42.6
2016-04-21T12:15:52.866Z,42.79
2016-04-21T12:16:52.182Z,42.79
2016-04-21T12:17:52.981Z,42.6
2016-04-21T12:18:53.031Z,43.17
2016-04-21T12:19:53.111Z,42.69
2016-04-21T12:20:53.129Z,42.69
2016-04-21T12:21:53.195Z,42.98
2016-04-21T12:22:53.228Z,42.88
2016-04-21T12:23:53.279Z,42.98
2016-04-21T12:24:53.343Z,42.88
2016-04-21T12:25:53.393Z,42.88
2016-04-21T12:26:53.427Z,42.98
2016-04-21T12:27:53.493Z,42.98
2016-04-21T12:28:53.542Z,43.07
2016-04-21T12:29:53.591Z,43.17
2016-04-21T12:30:53.641Z,43.07
2016-04-21T12:31:53.691Z,43.27
2016-04-21T12:32:53.756Z,43.46
2016-04-21T12:33:53.789Z,43.27
2016-04-21T12:34:53.839Z,43.07
2016-04-21T12:35:53.888Z,43.17
2016-04-21T12:36:53.954Z,43.36
2016-04-21T12:37:53.988Z,43.55
2016-04-21T12:38:54.053Z,43.36
2016-04-21T12:39:54.118Z,43.65
2016-04-21T12:40:54.152Z,44.13
2016-04-21T12:41:54.202Z,44.23
2016-04-21T12:42:54.252Z,44.03
2016-04-21T12:43:54.301Z,44.54
2016-04-21T12:44:54.351Z,44.15
2016-04-21T12:45:54.399Z,44.24
2016-04-21T12:46:54.449Z,44.15
2016-04-21T12:47:54.499Z,43.96
2016-04-21T12:48:54.548Z,44.24
2016-04-21T12:49:54.615Z,44.54
2016-04-21T12:50:54.663Z,44.44
2016-04-21T12:51:54.713Z,44.44
2016-04-21T12:52:54.763Z,44.24
2016-04-21T12:53:54.812Z,44.34
2016-04-21T12:54:54.893Z,44.24
2016-04-21T12:55:54.926Z,44.15
2016-04-21T12:56:54.961Z,44.24